Time;durP1;ratioP1;P1;durP2;ratioP2;P2;SDS_P1;SDS_P2;PMS_P1;PMS_P2;Temp;Humidity;BMP_temperature;BMP_pressure;BME280_temperature;BME280_humidity;BME280_pressure;Samples;Min_cycle;Max_cycle;Signal;HPM_P1;HPM_P2
2021/12/16 00:01:47;;;;;;;0.10;0.10;;;8.00;99.90;;;;;;5093673;28;20048;-80
2021/12/16 00:33:57;;;;;;;0.00;0.00;;;8.10;99.90;;;;;;5107392;28;20135;-79
2021/12/16 00:36:24;;;;;;;0.00;0.00;;;8.10;99.90;;;;;;5075393;28;20504;-79
2021/12/16 00:38:51;;;;;;;0.00;0.00;;;8.00;99.90;;;;;;5106805;28;20508;-81
2021/12/16 00:41:18;;;;;;;0.10;0.10;;;8.10;99.90;;;;;;5073482;28;20055;-78
2021/12/16 00:47:13;;;;;;;0.00;0.00;;;8.10;99.90;;;;;;5077123;28;20376;-79
2021/12/16 00:49:49;;;;;;;0.00;0.00;;;8.10;99.90;;;;;;5065107;28;20060;-79
2021/12/16 00:57:52;;;;;;;0.00;0.00;;;8.10;99.90;;;;;;5106222;28;20465;-79
2021/12/16 01:00:20;;;;;;;0.00;0.00;;;8.20;99.90;;;;;;5073103;28;20109;-80
2021/12/16 01:03:07;;;;;;;0.20;0.20;;;8.20;99.90;;;;;;5073145;28;20080;-78
2021/12/16 01:42:14;;;;;;;0.10;0.10;;;8.20;99.90;;;;;;5070604;28;20490;-79
2021/12/16 01:47:25;;;;;;;;;;;8.20;99.90;;;;;;5105754;28;20102;-80
2021/12/16 01:57:39;;;;;;;0.00;0.00;;;8.60;99.90;;;;;;5088708;28;20048;-78
2021/12/16 02:00:18;;;;;;;0.03;0.03;;;8.20;99.90;;;;;;5088616;28;20432;-79
2021/12/16 02:02:48;;;;;;;0.00;0.00;;;8.10;99.90;;;;;;5105657;28;20044;-80
2021/12/16 02:05:54;;;;;;;0.08;0.08;;;8.10;99.90;;;;;;5089111;28;20109;-79
2021/12/16 02:08:25;;;;;;;0.10;0.10;;;8.20;99.90;;;;;;5105095;28;20401;-79
2021/12/16 02:11:31;;;;;;;0.00;0.00;;;8.20;99.90;;;;;;5089186;28;20044;-78
2021/12/16 02:36:22;;;;;;;0.10;0.10;;;8.10;99.90;;;;;;5111566;28;20817;-79
2021/12/16 02:38:53;;;;;;;0.10;0.10;;;8.20;99.90;;;;;;5112056;28;20052;-80
2021/12/16 02:41:20;;;;;;;0.00;0.00;;;8.10;99.90;;;;;;5111719;28;20048;-79
2021/12/16 02:49:03;;;;;;;0.20;0.20;;;8.10;99.90;;;;;;5112249;28;20059;-79
2021/12/16 02:51:30;;;;;;;0.00;0.00;;;8.10;99.90;;;;;;5094831;28;20080;-80
2021/12/16 02:54:04;;;;;;;0.10;0.10;;;8.10;99.90;;;;;;5094920;28;20519;-78
2021/12/16 02:56:32;;;;;;;0.10;0.10;;;8.10;99.90;;;;;;5094965;28;20045;-80
2021/12/16 02:58:59;;;;;;;0.00;0.00;;;8.10;99.90;;;;;;5094925;28;20048;-79
2021/12/16 03:01:35;;;;;;;0.10;0.10;;;8.10;99.90;;;;;;5094346;28;20045;-79
2021/12/16 03:04:05;;;;;;;0.00;0.00;;;8.00;99.90;;;;;;5095332;28;20032;-79
2021/12/16 03:06:33;;;;;;;0.00;0.00;;;8.00;99.90;;;;;;5094678;28;20036;-79
2021/12/16 03:09:03;;;;;;;0.00;0.00;;;8.10;99.90;;;;;;5078569;28;20036;-79
2021/12/16 03:19:45;;;;;;;0.00;0.00;;;8.00;99.90;;;;;;5111140;28;20830;-79
2021/12/16 03:22:25;;;;;;;0.10;0.10;;;8.00;99.90;;;;;;5094199;28;20036;-78
2021/12/16 03:28:20;;;;;;;0.00;0.00;;;8.00;99.90;;;;;;5093269;28;20488;-79
2021/12/16 03:30:54;;;;;;;0.10;0.10;;;8.00;99.90;;;;;;5093704;28;20078;-79
2021/12/16 03:33:43;;;;;;;0.00;0.00;;;7.90;99.90;;;;;;5108189;28;20040;-79
2021/12/16 03:39:00;;;;;;;0.03;0.03;;;8.00;99.90;;;;;;5094126;28;20055;-80
2021/12/16 03:41:27;;;;;;;;;;;8.00;99.90;;;;;;5108208;28;20083;-80
2021/12/16 03:43:58;;;;;;;0.00;0.00;;;7.90;99.90;;;;;;5091238;28;19916;-79
2021/12/16 03:46:31;;;;;;;0.00;0.00;;;7.90;99.90;;;;;;5091279;28;20040;-80
2021/12/16 03:49:10;;;;;;;0.10;0.10;;;7.90;99.90;;;;;;5108037;28;20036;-79
2021/12/16 03:51:42;;;;;;;0.00;0.00;;;7.90;99.90;;;;;;5107328;28;20164;-81
2021/12/16 03:54:16;;;;;;;0.00;0.00;;;7.90;99.90;;;;;;5090979;28;20098;-79
2021/12/16 03:56:44;;;;;;;0.00;0.00;;;7.90;99.90;;;;;;5107977;28;20040;-80
2021/12/16 03:59:14;;;;;;;0.00;0.00;;;7.90;99.90;;;;;;5107501;28;20501;-81
2021/12/16 04:01:42;;;;;;;0.00;0.00;;;7.90;99.90;;;;;;5090804;28;20041;-80
2021/12/16 04:04:08;;;;;;;0.00;0.00;;;7.90;99.90;;;;;;5090934;28;20044;-80
2021/12/16 04:06:37;;;;;;;0.00;0.00;;;7.90;99.90;;;;;;5090716;28;20040;-81
2021/12/16 04:09:15;;;;;;;0.10;0.10;;;7.90;99.90;;;;;;5107501;28;20040;-80
2021/12/16 04:11:50;;;;;;;0.00;0.00;;;7.90;99.90;;;;;;5107429;28;20048;-80
2021/12/16 04:14:18;;;;;;;0.00;0.00;;;7.90;99.90;;;;;;5107227;28;20095;-79
2021/12/16 04:16:54;;;;;;;0.00;0.00;;;7.90;99.90;;;;;;5091052;28;20128;-80
2021/12/16 04:19:23;;;;;;;;;;;7.90;99.90;;;;;;5091165;28;20047;-80
2021/12/16 04:21:55;;;;;;;0.00;0.00;;;7.90;99.90;;;;;;5090635;28;20385;-80
2021/12/16 04:24:23;;;;;;;0.00;0.00;;;8.00;99.90;;;;;;5107031;28;20039;-78
2021/12/16 04:26:51;;;;;;;0.10;0.10;;;7.90;99.90;;;;;;5090628;28;20033;-79
2021/12/16 04:29:19;;;;;;;0.00;0.00;;;7.90;99.90;;;;;;5090528;28;20033;-80
2021/12/16 04:31:46;;;;;;;0.05;0.05;;;7.90;99.90;;;;;;5074059;28;20047;-79
2021/12/16 04:34:13;;;;;;;0.00;0.00;;;7.90;99.90;;;;;;5090259;28;20063;-79
2021/12/16 04:36:40;;;;;;;0.08;0.08;;;7.80;99.90;;;;;;5089785;28;20044;-79
2021/12/16 04:39:11;;;;;;;0.00;0.00;;;7.90;99.90;;;;;;5090108;28;20041;-80
2021/12/16 04:41:39;;;;;;;0.10;0.10;;;7.90;99.90;;;;;;5106708;28;20040;-80
2021/12/16 04:44:13;;;;;;;0.00;0.00;;;7.90;99.90;;;;;;5106934;28;20123;-80
2021/12/16 04:46:42;;;;;;;0.00;0.00;;;7.90;99.90;;;;;;5106505;28;20056;-79
2021/12/16 04:49:10;;;;;;;0.10;0.10;;;7.90;99.90;;;;;;5090385;28;20037;-79
2021/12/16 04:51:40;;;;;;;0.00;0.00;;;7.80;99.90;;;;;;5106228;28;20041;-79
2021/12/16 04:54:09;;;;;;;0.08;0.08;;;7.90;99.90;;;;;;5106681;28;20159;-79
2021/12/16 04:56:37;;;;;;;0.00;0.00;;;7.80;99.90;;;;;;5089992;28;20133;-79
2021/12/16 04:59:10;;;;;;;0.00;0.00;;;7.80;99.90;;;;;;5089757;28;20052;-80
2021/12/16 05:01:44;;;;;;;0.03;0.03;;;7.80;99.90;;;;;;5101335;28;20091;-80
2021/12/16 05:04:11;;;;;;;0.00;0.00;;;7.80;99.90;;;;;;5096828;28;20120;-80
2021/12/16 05:06:38;;;;;;;0.10;0.10;;;7.80;99.90;;;;;;5095587;28;20103;-79
2021/12/16 05:09:06;;;;;;;0.10;0.10;;;7.80;99.90;;;;;;5067982;28;20040;-77
2021/12/16 05:11:35;;;;;;;0.00;0.00;;;7.80;99.90;;;;;;5096449;28;20044;-80
2021/12/16 05:14:06;;;;;;;0.10;0.10;;;7.80;99.90;;;;;;5096025;28;20509;-79
2021/12/16 05:16:33;;;;;;;0.00;0.00;;;7.80;99.90;;;;;;5097237;28;20144;-80
2021/12/16 05:19:00;;;;;;;0.10;0.10;;;7.80;99.90;;;;;;5065688;28;20126;-79
2021/12/16 05:21:49;;;;;;;0.10;0.10;;;7.70;99.90;;;;;;5079850;28;20544;-79
2021/12/16 05:24:27;;;;;;;0.00;0.00;;;7.70;99.90;;;;;;5075946;28;20046;-80
2021/12/16 05:27:00;;;;;;;0.00;0.00;;;7.70;99.90;;;;;;5089261;28;20554;-80
2021/12/16 05:29:27;;;;;;;0.10;0.10;;;7.70;99.90;;;;;;5089054;28;20040;-79
2021/12/16 05:31:54;;;;;;;0.00;0.00;;;7.70;99.90;;;;;;5089467;28;20370;-80
2021/12/16 05:34:22;;;;;;;0.00;0.00;;;7.70;99.90;;;;;;5089381;28;20055;-80
2021/12/16 05:36:49;;;;;;;0.00;0.00;;;7.80;99.90;;;;;;5072194;28;20400;-79
2021/12/16 05:39:17;;;;;;;0.00;0.00;;;7.70;99.90;;;;;;5072693;28;20416;-81
2021/12/16 05:41:45;;;;;;;0.03;0.03;;;7.70;99.90;;;;;;5088468;28;20138;-80
2021/12/16 05:44:12;;;;;;;0.00;0.00;;;7.80;99.90;;;;;;5089423;28;20036;-79
2021/12/16 05:46:39;;;;;;;0.00;0.00;;;7.80;99.90;;;;;;5088749;28;20069;-79
2021/12/16 05:49:10;;;;;;;0.03;0.03;;;7.70;99.90;;;;;;5089122;28;20068;-81
2021/12/16 05:51:39;;;;;;;0.03;0.03;;;7.80;99.90;;;;;;5104802;28;20044;-80
2021/12/16 05:54:07;;;;;;;0.00;0.00;;;7.70;99.90;;;;;;5088809;28;20417;-80
2021/12/16 05:56:34;;;;;;;0.00;0.00;;;7.70;99.90;;;;;;5071921;28;20040;-80
2021/12/16 05:59:02;;;;;;;0.00;0.00;;;7.70;99.90;;;;;;5099839;28;20064;-79
2021/12/16 06:01:33;;;;;;;0.10;0.10;;;7.70;99.90;;;;;;5096502;28;20071;-80
2021/12/16 06:04:00;;;;;;;0.00;0.00;;;7.70;99.90;;;;;;5085800;28;20564;-79
2021/12/16 06:06:28;;;;;;;0.00;0.00;;;7.70;99.90;;;;;;5077424;28;20048;-80
2021/12/16 06:08:56;;;;;;;0.30;0.10;;;7.70;99.90;;;;;;5076243;28;20033;-80
2021/12/16 06:11:28;;;;;;;0.10;0.10;;;7.70;99.90;;;;;;5055289;28;20071;-80
2021/12/16 06:27:39;;;;;;;0.00;0.00;;;7.80;99.90;;;;;;5090998;28;20043;-79
2021/12/16 06:30:13;;;;;;;0.00;0.00;;;7.70;99.90;;;;;;5088692;28;20036;-78
2021/12/16 06:32:40;;;;;;;0.10;0.10;;;7.70;99.90;;;;;;5088370;28;20048;-79
2021/12/16 06:35:09;;;;;;;0.10;0.10;;;7.60;99.90;;;;;;5088621;28;20040;-80
2021/12/16 06:37:35;;;;;;;0.10;0.10;;;7.60;99.90;;;;;;5088103;28;20052;-79
2021/12/16 06:40:05;;;;;;;0.10;0.10;;;7.60;99.90;;;;;;5072026;28;20098;-78
2021/12/16 06:42:36;;;;;;;0.00;0.00;;;7.60;99.90;;;;;;5105221;28;20074;-79
2021/12/16 06:45:08;;;;;;;0.00;0.00;;;7.60;99.90;;;;;;5088948;28;20119;-79
2021/12/16 06:47:49;;;;;;;0.10;0.10;;;7.60;99.90;;;;;;5074146;28;20123;-78
2021/12/16 06:51:05;;;;;;;0.00;0.00;;;7.50;99.90;;;;;;5076047;28;20043;-80
2021/12/16 06:53:11;;;;;;;0.10;0.10;;;7.50;99.90;;;;;;5094156;28;20071;-79
2021/12/16 06:55:58;;;;;;;0.00;0.00;;;7.50;99.90;;;;;;5072104;28;20090;-79
2021/12/16 07:01:14;;;;;;;0.10;0.10;;;7.40;99.90;;;;;;5089769;28;20076;-80
2021/12/16 07:03:47;;;;;;;0.08;0.08;;;7.40;99.90;;;;;;5090563;28;20045;-80
2021/12/16 07:06:26;;;;;;;0.00;0.00;;;7.30;99.90;;;;;;5092532;28;20143;-79
2021/12/16 07:09:02;;;;;;;0.05;0.05;;;7.30;99.90;;;;;;5091584;28;20497;-79
2021/12/16 07:11:30;;;;;;;0.10;0.10;;;7.30;99.90;;;;;;5108895;28;20040;-80
2021/12/16 07:14:01;;;;;;;0.20;0.20;;;7.30;99.90;;;;;;5108166;28;20049;-79
2021/12/16 07:16:29;;;;;;;0.00;0.00;;;7.20;99.90;;;;;;5092615;28;20123;-79
2021/12/16 07:18:58;;;;;;;0.10;0.10;;;7.20;99.90;;;;;;5075043;28;20083;-79
2021/12/16 07:21:25;;;;;;;0.00;0.00;;;7.20;99.90;;;;;;5091646;28;20044;-81
2021/12/16 07:23:53;;;;;;;0.10;0.10;;;7.20;99.90;;;;;;5091281;28;20040;-78
2021/12/16 07:26:20;;;;;;;0.10;0.10;;;7.20;99.90;;;;;;5074635;28;20071;-79
2021/12/16 07:28:46;;;;;;;0.00;0.00;;;7.10;99.90;;;;;;5074303;28;20083;-80
2021/12/16 07:31:13;;;;;;;0.10;0.10;;;7.20;99.90;;;;;;5089008;28;20033;-78
2021/12/16 07:33:40;;;;;;;0.00;0.00;;;7.20;99.90;;;;;;5082339;28;20119;-79
2021/12/16 07:36:07;;;;;;;0.10;0.10;;;7.20;99.90;;;;;;5066258;28;20045;-80
2021/12/16 07:38:34;;;;;;;0.20;0.20;;;7.20;99.90;;;;;;5085616;28;20037;-80
2021/12/16 07:41:01;;;;;;;0.10;0.10;;;7.30;99.90;;;;;;5099494;28;20039;-78
2021/12/16 07:43:53;;;;;;;0.03;0.03;;;7.30;99.90;;;;;;5064870;28;20501;-79
2021/12/16 07:46:20;;;;;;;0.10;0.10;;;7.30;99.90;;;;;;5118718;28;20108;-78
2021/12/16 07:48:47;;;;;;;0.10;0.10;;;7.30;99.90;;;;;;5100661;28;20111;-78
2021/12/16 07:51:14;;;;;;;0.10;0.10;;;7.30;99.90;;;;;;5093176;28;20033;-80
2021/12/16 07:53:42;;;;;;;0.00;0.00;;;7.40;99.90;;;;;;5086622;28;20032;-79
2021/12/16 07:56:09;;;;;;;0.10;0.10;;;7.30;99.90;;;;;;5103705;28;20090;-81
2021/12/16 07:58:37;;;;;;;0.10;0.10;;;7.30;99.90;;;;;;5091625;28;20114;-79
2021/12/16 08:01:05;;;;;;;0.10;0.10;;;7.30;99.90;;;;;;5070856;28;20045;-81
2021/12/16 08:03:35;;;;;;;0.10;0.10;;;7.30;99.90;;;;;;5092471;28;20076;-81
2021/12/16 08:06:11;;;;;;;0.20;0.20;;;7.30;99.90;;;;;;5087360;28;20070;-79
2021/12/16 08:08:39;;;;;;;0.10;0.10;;;7.40;99.90;;;;;;5087389;28;20203;-78
2021/12/16 08:11:07;;;;;;;0.10;0.10;;;7.40;99.90;;;;;;5087096;28;20051;-80
2021/12/16 08:13:34;;;;;;;0.10;0.10;;;7.40;99.90;;;;;;5095411;28;20040;-78
2021/12/16 08:16:02;;;;;;;0.00;0.00;;;7.40;99.90;;;;;;5085526;28;20420;-79
2021/12/16 08:18:30;;;;;;;0.10;0.10;;;7.40;99.90;;;;;;5070575;28;20041;-79
2021/12/16 08:20:57;;;;;;;0.00;0.00;;;7.40;99.90;;;;;;5070474;28;20049;-80
2021/12/16 08:23:24;;;;;;;0.05;0.05;;;7.50;99.90;;;;;;5070587;28;20110;-78
2021/12/16 08:25:51;;;;;;;0.05;0.05;;;7.40;99.90;;;;;;5053496;28;20094;-78
2021/12/16 08:28:18;;;;;;;0.00;0.00;;;7.50;99.90;;;;;;5071083;28;20045;-80
2021/12/16 08:30:48;;;;;;;0.10;0.10;;;7.60;99.90;;;;;;5085521;28;20051;-78
2021/12/16 08:33:16;;;;;;;0.03;0.03;;;7.50;99.90;;;;;;5094915;28;20032;-79
2021/12/16 08:35:49;;;;;;;0.05;0.05;;;7.50;99.90;;;;;;5047927;28;20123;-78
2021/12/16 08:38:19;;;;;;;0.00;0.00;;;7.50;99.90;;;;;;5093090;28;20045;-80
2021/12/16 08:40:47;;;;;;;0.00;0.00;;;7.60;99.90;;;;;;5078946;28;20048;-80
2021/12/16 08:43:15;;;;;;;0.00;0.00;;;7.60;99.90;;;;;;5080049;28;20064;-80
2021/12/16 08:45:42;;;;;;;0.00;0.00;;;7.60;99.90;;;;;;5091784;28;20037;-78
2021/12/16 08:48:10;;;;;;;0.10;0.10;;;7.60;99.90;;;;;;5063538;28;20076;-79
2021/12/16 08:50:42;;;;;;;0.00;0.00;;;7.70;99.90;;;;;;5093468;28;20045;-77
2021/12/16 08:53:10;;;;;;;0.10;0.10;;;7.70;99.90;;;;;;5100551;28;20501;-78
2021/12/16 08:55:38;;;;;;;0.05;0.05;;;7.70;99.90;;;;;;5057282;28;20532;-79
2021/12/16 08:58:06;;;;;;;0.00;0.00;;;7.70;99.90;;;;;;5074880;28;20067;-78
2021/12/16 09:00:41;;;;;;;0.00;0.00;;;7.70;99.90;;;;;;5096990;28;20080;-77
2021/12/16 09:03:08;;;;;;;0.10;0.10;;;7.80;99.90;;;;;;5095647;28;20120;-78
2021/12/16 09:05:36;;;;;;;0.10;0.10;;;7.80;99.90;;;;;;5078921;28;20648;-79
2021/12/16 09:08:03;;;;;;;0.20;0.20;;;7.80;99.90;;;;;;5106526;28;20044;-79
2021/12/16 09:10:33;;;;;;;0.10;0.10;;;7.80;99.90;;;;;;5073822;28;20032;-82
2021/12/16 09:13:05;;;;;;;0.00;0.00;;;7.80;99.90;;;;;;5090323;28;20032;-79
2021/12/16 09:15:44;;;;;;;0.03;0.03;;;7.80;99.90;;;;;;5089717;28;20516;-81
2021/12/16 09:18:12;;;;;;;0.10;0.10;;;7.80;99.90;;;;;;5105797;28;20512;-81
2021/12/16 09:20:39;;;;;;;0.10;0.10;;;7.80;99.90;;;;;;5089967;28;20044;-78
2021/12/16 09:23:08;;;;;;;0.10;0.10;;;8.10;99.90;;;;;;5089434;28;20131;-78
2021/12/16 09:25:36;;;;;;;0.03;0.03;;;7.80;99.90;;;;;;5072411;28;20036;-81
2021/12/16 09:28:03;;;;;;;0.08;0.08;;;7.90;99.90;;;;;;5089410;28;20072;-80
2021/12/16 09:30:34;;;;;;;0.00;0.00;;;7.90;99.90;;;;;;5090101;28;20049;-79
2021/12/16 09:33:03;;;;;;;0.05;0.05;;;7.90;99.90;;;;;;5073245;28;20033;-79
2021/12/16 09:35:34;;;;;;;0.00;0.00;;;8.00;99.90;;;;;;5084275;28;20583;-80
2021/12/16 09:38:02;;;;;;;0.00;0.00;;;8.00;99.90;;;;;;5069688;28;20456;-78
2021/12/16 09:40:35;;;;;;;0.00;0.00;;;8.10;99.90;;;;;;5053615;28;20049;-80
2021/12/16 09:43:02;;;;;;;0.10;0.10;;;8.10;99.90;;;;;;5070427;28;20033;-78
2021/12/16 09:45:29;;;;;;;0.00;0.00;;;8.10;99.90;;;;;;5070218;28;20045;-81
2021/12/16 09:47:56;;;;;;;0.10;0.10;;;8.10;99.90;;;;;;5073632;28;20123;-80
2021/12/16 09:50:29;;;;;;;0.20;0.20;;;8.10;99.90;;;;;;5056347;28;20124;-79
2021/12/16 09:52:56;;;;;;;0.05;0.05;;;8.20;99.90;;;;;;5072275;28;20059;-82
2021/12/16 09:55:23;;;;;;;0.00;0.00;;;8.10;99.90;;;;;;5079643;28;20066;-78
2021/12/16 09:57:51;;;;;;;0.10;0.10;;;8.10;99.90;;;;;;5068736;28;20075;-80
2021/12/16 10:00:22;;;;;;;0.10;0.10;;;8.10;99.90;;;;;;5071797;28;20055;-78
2021/12/16 10:02:51;;;;;;;0.10;0.10;;;8.20;99.90;;;;;;5083368;28;20049;-78
2021/12/16 10:05:18;;;;;;;0.10;0.10;;;8.20;99.90;;;;;;5079799;28;20040;-79
2021/12/16 10:07:46;;;;;;;0.10;0.10;;;8.20;99.90;;;;;;5105628;28;20033;-78
2021/12/16 10:10:17;;;;;;;0.00;0.00;;;8.20;99.90;;;;;;5103076;28;20044;-80
2021/12/16 10:12:47;;;;;;;0.10;0.10;;;8.20;99.90;;;;;;5085383;28;20041;-78
2021/12/16 10:18:05;;;;;;;0.00;0.00;;;8.30;99.90;;;;;;5071100;28;20064;-82
2021/12/16 10:20:43;;;;;;;0.10;0.10;;;8.20;99.90;;;;;;5089956;28;20120;-82
2021/12/16 10:23:17;;;;;;;0.00;0.00;;;8.30;99.90;;;;;;5101380;28;20444;-82
2021/12/16 10:25:52;;;;;;;0.10;0.10;;;8.30;99.90;;;;;;5098829;28;20049;-81
2021/12/16 10:28:24;;;;;;;0.00;0.00;;;8.30;99.90;;;;;;5082418;28;20047;-82
2021/12/16 10:31:04;;;;;;;0.00;0.00;;;8.30;99.90;;;;;;5081499;28;20040;-79
2021/12/16 10:33:59;;;;;;;0.00;0.00;;;8.30;99.90;;;;;;5068650;28;20049;-79
2021/12/16 10:36:32;;;;;;;0.00;0.00;;;8.30;99.90;;;;;;5095510;28;20098;-76
2021/12/16 10:39:13;;;;;;;0.00;0.00;;;8.20;99.90;;;;;;5108928;28;20047;-76
2021/12/16 10:41:41;;;;;;;0.00;0.00;;;8.30;99.90;;;;;;5091617;28;20040;-80
2021/12/16 10:44:17;;;;;;;0.00;0.00;;;8.30;99.90;;;;;;5099187;28;20037;-80
2021/12/16 10:46:47;;;;;;;;;;;8.30;99.90;;;;;;5100800;28;20036;-81
2021/12/16 10:49:17;;;;;;;0.05;0.05;;;8.30;99.90;;;;;;5092157;28;19966;-78
2021/12/16 10:51:50;;;;;;;0.00;0.00;;;8.30;99.90;;;;;;5091762;28;20040;-78
2021/12/16 10:54:22;;;;;;;0.10;0.10;;;8.30;99.90;;;;;;5090494;28;20041;-78
2021/12/16 10:56:54;;;;;;;0.03;0.03;;;8.30;99.90;;;;;;5103540;28;20048;-81
2021/12/16 10:59:27;;;;;;;0.00;0.00;;;8.20;99.90;;;;;;5091109;28;20095;-81
2021/12/16 11:02:04;;;;;;;0.00;0.00;;;8.30;99.90;;;;;;5090706;28;20505;-81
2021/12/16 11:04:41;;;;;;;0.10;0.10;;;8.30;99.90;;;;;;5090355;28;20044;-78
2021/12/16 11:07:26;;;;;;;0.00;0.00;;;8.30;99.90;;;;;;5079484;28;20071;-78
2021/12/16 11:10:06;;;;;;;0.03;0.03;;;8.30;99.90;;;;;;5088329;28;20575;-81
2021/12/16 11:12:36;;;;;;;0.00;0.00;;;8.40;99.90;;;;;;5072090;28;20074;-80
2021/12/16 11:15:18;;;;;;;0.20;0.10;;;8.30;99.90;;;;;;5077050;28;20087;-81
2021/12/16 11:17:54;;;;;;;0.10;0.10;;;8.30;99.90;;;;;;5101681;28;20045;-80
2021/12/16 11:20:33;;;;;;;0.03;0.03;;;8.30;99.90;;;;;;5102594;28;20048;-80
2021/12/16 11:23:08;;;;;;;0.00;0.00;;;8.30;99.90;;;;;;5089290;28;20033;-80
2021/12/16 11:25:41;;;;;;;0.00;0.00;;;8.30;99.90;;;;;;5098857;28;20464;-80
2021/12/16 11:28:31;;;;;;;0.10;0.10;;;8.30;99.90;;;;;;5103547;28;20037;-80
2021/12/16 11:31:01;;;;;;;0.10;0.10;;;8.30;99.90;;;;;;5078497;28;20064;-81
2021/12/16 11:33:30;;;;;;;0.10;0.10;;;8.30;99.90;;;;;;5104400;28;20067;-80
2021/12/16 11:36:16;;;;;;;0.00;0.00;;;8.30;99.90;;;;;;5099878;28;20052;-79
2021/12/16 11:38:45;;;;;;;0.57;0.57;;;8.30;99.90;;;;;;5086108;28;20045;-81
2021/12/16 11:41:20;;;;;;;0.00;0.00;;;8.30;99.90;;;;;;5099322;28;20056;-80
2021/12/16 11:43:50;;;;;;;0.00;0.00;;;8.30;99.90;;;;;;5086887;28;20149;-79
2021/12/16 11:46:21;;;;;;;0.68;0.32;;;8.30;99.90;;;;;;5089281;28;20498;-81
2021/12/16 11:48:49;;;;;;;0.10;0.10;;;8.30;99.90;;;;;;5079577;28;20484;-79
2021/12/16 11:51:29;;;;;;;0.00;0.00;;;8.40;99.90;;;;;;5074423;28;20478;-80
2021/12/16 11:54:03;;;;;;;0.00;0.00;;;8.40;99.90;;;;;;5090888;28;20070;-80
2021/12/16 11:56:57;;;;;;;0.10;0.10;;;8.40;99.90;;;;;;5087483;28;20049;-80
2021/12/16 11:59:46;;;;;;;0.22;0.22;;;8.40;99.90;;;;;;5070625;28;20092;-80
2021/12/16 12:02:33;;;;;;;0.10;0.10;;;8.40;99.90;;;;;;5089535;28;20082;-81
2021/12/16 12:05:30;;;;;;;0.03;0.03;;;8.40;99.90;;;;;;5090495;28;20127;-80
2021/12/16 12:08:31;;;;;;;0.00;0.00;;;8.50;99.90;;;;;;5096374;28;20040;-80
2021/12/16 12:11:02;;;;;;;0.10;0.10;;;8.50;99.90;;;;;;5087156;28;20476;-80
2021/12/16 12:13:34;;;;;;;0.00;0.00;;;8.60;99.90;;;;;;5099920;28;20409;-81
2021/12/16 12:16:01;;;;;;;0.00;0.00;;;8.60;99.90;;;;;;5088879;28;20106;-80
2021/12/16 12:18:49;;;;;;;0.00;0.00;;;8.50;99.90;;;;;;5102376;28;20044;-80
2021/12/16 12:21:20;;;;;;;0.10;0.10;;;8.50;99.90;;;;;;5090502;28;20080;-80
2021/12/16 12:23:52;;;;;;;0.10;0.10;;;8.50;99.90;;;;;;5090078;28;20036;-80
2021/12/16 12:26:20;;;;;;;0.00;0.00;;;8.50;99.90;;;;;;5090575;28;20543;-80
2021/12/16 12:28:51;;;;;;;0.00;0.00;;;8.50;99.90;;;;;;5090015;28;20119;-80
2021/12/16 12:31:21;;;;;;;0.00;0.00;;;8.50;99.90;;;;;;5106479;28;20495;-81
2021/12/16 12:33:49;;;;;;;0.10;0.10;;;8.50;99.90;;;;;;5090302;28;20686;-80
2021/12/16 12:36:18;;;;;;;0.00;0.00;;;8.50;99.90;;;;;;5090361;28;20105;-82
2021/12/16 12:38:46;;;;;;;0.10;0.10;;;8.60;99.90;;;;;;5088030;28;20044;-80
2021/12/16 12:41:13;;;;;;;0.00;0.00;;;8.40;99.90;;;;;;5086995;28;20105;-81
2021/12/16 12:43:40;;;;;;;0.00;0.00;;;8.50;99.90;;;;;;5092222;28;20041;-80
2021/12/16 12:46:08;;;;;;;0.00;0.00;;;8.50;99.90;;;;;;5067221;28;20025;-81
2021/12/16 12:48:37;;;;;;;0.00;0.00;;;8.60;99.90;;;;;;5086666;28;20044;-81
2021/12/16 12:51:05;;;;;;;0.00;0.00;;;8.50;99.90;;;;;;5079186;28;20037;-82
2021/12/16 12:53:50;;;;;;;0.15;0.15;;;8.50;99.90;;;;;;5077767;28;20129;-80
2021/12/16 12:56:21;;;;;;;0.00;0.00;;;8.50;99.90;;;;;;5083468;28;20037;-81
2021/12/16 12:58:52;;;;;;;0.00;0.00;;;8.60;99.90;;;;;;5098789;28;20140;-81
2021/12/16 13:01:37;;;;;;;0.00;0.00;;;8.60;99.90;;;;;;5084259;28;20409;-80
2021/12/16 13:04:11;;;;;;;0.00;0.00;;;8.50;99.90;;;;;;5084249;28;20409;-81
2021/12/16 13:07:05;;;;;;;0.00;0.00;;;8.60;99.90;;;;;;5072531;28;20041;-81
2021/12/16 13:09:50;;;;;;;0.10;0.10;;;8.50;99.90;;;;;;5083062;28;20131;-80
2021/12/16 13:12:31;;;;;;;0.08;0.08;;;8.50;99.90;;;;;;5086230;28;20711;-80
2021/12/16 13:15:08;;;;;;;0.00;0.00;;;8.50;99.90;;;;;;5086346;28;20048;-79
2021/12/16 13:23:30;;;;;;;0.00;0.00;;;8.50;99.90;;;;;;5085119;28;20056;-80
2021/12/16 13:28:58;;;;;;;;;;;8.50;99.90;;;;;;5086469;28;20044;-80
2021/12/16 13:31:37;;;;;;;0.00;0.00;;;8.50;99.90;;;;;;5074655;28;19916;-83
2021/12/16 13:34:04;;;;;;;0.15;0.15;;;8.50;99.90;;;;;;5089509;28;20044;-80
2021/12/16 13:36:46;;;;;;;0.10;0.10;;;8.50;99.90;;;;;;5105765;28;20489;-80
2021/12/16 13:39:22;;;;;;;0.00;0.00;;;8.50;99.90;;;;;;5089104;28;20129;-81
2021/12/16 13:42:07;;;;;;;0.00;0.00;;;8.50;99.90;;;;;;5086905;28;20037;-82
2021/12/16 13:45:03;;;;;;;0.10;0.10;;;8.50;99.90;;;;;;5068693;28;20107;-79
2021/12/16 13:47:53;;;;;;;0.20;0.20;;;8.50;99.90;;;;;;5085626;28;20049;-80
2021/12/16 14:02:06;;;;;;;0.10;0.10;;;8.50;99.90;;;;;;5097525;28;20067;-79
2021/12/16 14:04:57;;;;;;;0.00;0.00;;;8.50;99.90;;;;;;5074103;28;20127;-79
2021/12/16 14:07:54;;;;;;;0.00;0.00;;;8.50;99.90;;;;;;5104620;28;20098;-81
2021/12/16 14:10:50;;;;;;;0.00;0.00;;;8.50;99.90;;;;;;5088775;28;20078;-80
2021/12/16 14:41:47;;;;;;;0.08;0.08;;;8.40;99.90;;;;;;5084496;28;20107;-82
2021/12/16 14:47:00;;;;;;;0.00;0.00;;;8.50;99.90;;;;;;5105104;28;20314;-81
2021/12/16 14:49:29;;;;;;;0.05;0.05;;;8.50;99.90;;;;;;5088187;28;20828;-82
2021/12/16 14:51:58;;;;;;;0.10;0.10;;;8.40;99.90;;;;;;5058509;28;20052;-81
2021/12/16 14:54:25;;;;;;;0.10;0.10;;;8.40;99.90;;;;;;5052140;28;20775;-80
2021/12/16 14:56:58;;;;;;;0.00;0.00;;;8.50;99.90;;;;;;5052101;28;20127;-81
2021/12/16 14:59:27;;;;;;;0.10;0.10;;;8.50;99.90;;;;;;5067303;28;20049;-81
2021/12/16 15:01:58;;;;;;;0.00;0.00;;;8.40;99.90;;;;;;5052121;28;20041;-85
2021/12/16 15:04:26;;;;;;;0.03;0.03;;;8.40;99.90;;;;;;5067635;28;20029;-80
2021/12/16 15:07:04;;;;;;;0.00;0.00;;;8.50;99.90;;;;;;5080362;28;20098;-80
2021/12/16 15:09:36;;;;;;;0.08;0.08;;;8.40;99.90;;;;;;5087879;28;20043;-80
2021/12/16 15:12:55;;;;;;;0.00;0.00;;;8.50;99.90;;;;;;5071473;28;20583;-82
2021/12/16 15:40:13;;;;;;;0.00;0.00;;;8.40;99.90;;;;;;5105336;28;20056;-79
2021/12/16 15:42:49;;;;;;;0.10;0.10;;;8.40;99.90;;;;;;5073285;28;20508;-80
2021/12/16 15:45:23;;;;;;;0.00;0.00;;;8.40;99.90;;;;;;5081210;28;20040;-80
2021/12/16 15:48:03;;;;;;;0.00;0.00;;;8.40;99.90;;;;;;5092625;28;20036;-80
2021/12/16 15:50:43;;;;;;;0.08;0.08;;;8.40;99.90;;;;;;5096164;28;20045;-80
2021/12/16 15:53:18;;;;;;;0.00;0.00;;;8.40;99.90;;;;;;5100663;28;20036;-80
2021/12/16 15:55:57;;;;;;;0.08;0.08;;;8.50;99.90;;;;;;5076837;28;20478;-79
2021/12/16 15:58:49;;;;;;;0.00;0.00;;;8.40;99.90;;;;;;5093196;28;20056;-79
2021/12/16 16:01:29;;;;;;;0.00;0.00;;;8.40;99.90;;;;;;5095935;28;20055;-80
2021/12/16 16:04:02;;;;;;;0.08;0.08;;;8.50;99.90;;;;;;5075155;28;20044;-80
2021/12/16 16:06:29;;;;;;;0.10;0.10;;;8.40;99.90;;;;;;5060498;28;20072;-79
2021/12/16 16:09:00;;;;;;;0.10;0.10;;;8.40;99.90;;;;;;5104791;28;20512;-80
2021/12/16 16:11:30;;;;;;;0.10;0.10;;;8.40;99.90;;;;;;5087427;28;20040;-80
2021/12/16 16:14:03;;;;;;;0.00;0.00;;;8.40;99.90;;;;;;5084590;28;20036;-80
2021/12/16 16:16:41;;;;;;;0.00;0.00;;;8.40;99.90;;;;;;5089282;28;20051;-81
2021/12/16 16:19:09;;;;;;;0.00;0.00;;;8.40;99.90;;;;;;5087018;28;20509;-80
2021/12/16 16:21:40;;;;;;;0.00;0.00;;;8.40;99.90;;;;;;5096606;28;20041;-81
2021/12/16 16:24:29;;;;;;;0.10;0.10;;;8.40;99.90;;;;;;5090397;28;20048;-79
2021/12/16 16:26:59;;;;;;;0.03;0.03;;;8.40;99.90;;;;;;5107365;28;20170;-79
2021/12/16 16:29:28;;;;;;;0.00;0.00;;;8.40;99.90;;;;;;5073327;28;20040;-79
2021/12/16 16:31:57;;;;;;;0.10;0.10;;;8.40;99.90;;;;;;5090497;28;20040;-80
2021/12/16 16:34:26;;;;;;;0.05;0.05;;;8.30;99.90;;;;;;5073407;28;20041;-79
2021/12/16 16:36:57;;;;;;;0.00;0.00;;;8.40;99.90;;;;;;5089975;28;20095;-80
2021/12/16 16:39:31;;;;;;;0.55;0.55;;;8.40;99.90;;;;;;5089970;28;20036;-79
2021/12/16 16:42:04;;;;;;;0.00;0.00;;;8.40;99.90;;;;;;5106778;28;20394;-80
2021/12/16 16:44:32;;;;;;;0.10;0.10;;;8.40;99.90;;;;;;5106121;28;20170;-80
2021/12/16 16:47:09;;;;;;;0.00;0.00;;;8.40;99.90;;;;;;5106843;28;20528;-80
2021/12/16 16:49:49;;;;;;;0.00;0.00;;;8.40;99.90;;;;;;5090047;28;20489;-80
2021/12/16 16:52:28;;;;;;;0.00;0.00;;;8.40;99.90;;;;;;5090317;28;20044;-80
2021/12/16 16:55:13;;;;;;;0.00;0.00;;;8.40;99.90;;;;;;5090149;28;20045;-80
2021/12/16 16:57:46;;;;;;;0.00;0.00;;;8.40;99.90;;;;;;5106278;28;20044;-79
2021/12/16 17:00:18;;;;;;;0.03;0.03;;;8.40;99.90;;;;;;5106107;28;20139;-80
2021/12/16 17:02:54;;;;;;;0.10;0.10;;;8.40;99.90;;;;;;5089574;28;20036;-79
2021/12/16 17:05:34;;;;;;;0.10;0.10;;;8.30;99.90;;;;;;5106043;28;20040;-80
2021/12/16 17:08:11;;;;;;;0.00;0.00;;;8.30;99.90;;;;;;5090045;28;20044;-79
2021/12/16 17:10:46;;;;;;;0.10;0.10;;;8.30;99.90;;;;;;5089598;28;20044;-79